Time;durP1;ratioP1;P1;durP2;ratioP2;P2;SDS_P1;SDS_P2;PMS_P1;PMS_P2;Temp;Humidity;BMP_temperature;BMP_pressure;BME280_temperature;BME280_humidity;BME280_pressure;Samples;Min_cycle;Max_cycle;Signal;HPM_P1;HPM_P2
2023/12/25 00:01:13;;;;;;;0.20;0.20;;;;;;;;;;6294517;28;20050;-83
2023/12/25 00:04:14;;;;;;;0.20;0.20;;;;;;;;;;6294306;28;20483;-83
2023/12/25 00:07:14;;;;;;;0.20;0.20;;;;;;;;;;6293905;28;20445;-81
2023/12/25 00:10:14;;;;;;;0.20;0.20;;;;;;;;;;6279826;28;20399;-82
2023/12/25 00:13:14;;;;;;;0.10;0.10;;;;;;;;;;6291252;28;20290;-82
2023/12/25 00:16:15;;;;;;;0.10;0.10;;;;;;;;;;6293492;28;20039;-82
2023/12/25 00:19:15;;;;;;;0.13;0.13;;;;;;;;;;6275406;28;20059;-82
2023/12/25 00:22:15;;;;;;;0.10;0.10;;;;;;;;;;6275285;28;20024;-83
2023/12/25 00:25:15;;;;;;;0.20;0.20;;;;;;;;;;6293751;28;20103;-83
2023/12/25 00:28:15;;;;;;;0.10;0.10;;;;;;;;;;6291871;28;20027;-83
2023/12/25 00:31:15;;;;;;;0.10;0.10;;;;;;;;;;6272207;28;20052;-83
2023/12/25 00:34:16;;;;;;;0.10;0.10;;;;;;;;;;6285072;28;20077;-82
2023/12/25 00:37:17;;;;;;;0.10;0.10;;;;;;;;;;6282928;28;20024;-84
2023/12/25 00:40:17;;;;;;;0.10;0.10;;;;;;;;;;6273097;28;20017;-83
2023/12/25 00:43:17;;;;;;;0.20;0.20;;;;;;;;;;6270989;28;20013;-83
2023/12/25 00:46:18;;;;;;;0.20;0.20;;;;;;;;;;6292795;28;20512;-84
2023/12/25 00:49:19;;;;;;;0.10;0.10;;;;;;;;;;6293124;28;20039;-83
2023/12/25 00:52:19;;;;;;;0.20;0.20;;;;;;;;;;6292846;28;20094;-82
2023/12/25 00:55:20;;;;;;;0.20;0.20;;;;;;;;;;6292959;28;20059;-82
2023/12/25 00:58:20;;;;;;;0.20;0.20;;;;;;;;;;6293062;28;20016;-84
2023/12/25 01:01:20;;;;;;;0.10;0.10;;;;;;;;;;6258010;28;20025;-83
2023/12/25 01:04:20;;;;;;;0.10;0.10;;;;;;;;;;6289980;28;20051;-83
2023/12/25 01:07:21;;;;;;;0.17;0.17;;;;;;;;;;6292197;28;20040;-82
2023/12/25 01:10:21;;;;;;;0.20;0.20;;;;;;;;;;6291874;28;20016;-82
2023/12/25 01:13:21;;;;;;;0.20;0.20;;;;;;;;;;6290103;28;20103;-84
2023/12/25 01:16:23;;;;;;;0.20;0.20;;;;;;;;;;6274787;28;20140;-83
2023/12/25 01:19:24;;;;;;;0.10;0.10;;;;;;;;;;6274276;28;20096;-83
2023/12/25 01:22:24;;;;;;;0.10;0.10;;;;;;;;;;6290428;28;20020;-83
2023/12/25 01:25:24;;;;;;;0.20;0.20;;;;;;;;;;6286898;28;20028;-83
2023/12/25 01:28:24;;;;;;;0.20;0.20;;;;;;;;;;6292021;28;20550;-83
2023/12/25 01:31:25;;;;;;;0.20;0.20;;;;;;;;;;6273243;28;20427;-83
2023/12/25 01:34:25;;;;;;;0.20;0.20;;;;;;;;;;6291231;28;20051;-81
2023/12/25 01:37:25;;;;;;;0.20;0.20;;;;;;;;;;6283354;28;20712;-83
2023/12/25 01:40:25;;;;;;;0.13;0.13;;;;;;;;;;6272042;28;20020;-82
2023/12/25 01:43:25;;;;;;;0.10;0.10;;;;;;;;;;6273849;28;20482;-82
2023/12/25 01:46:26;;;;;;;0.20;0.20;;;;;;;;;;6272528;28;20060;-82
2023/12/25 01:49:26;;;;;;;0.20;0.20;;;;;;;;;;6286005;28;20024;-81
2023/12/25 01:52:27;;;;;;;0.10;0.10;;;;;;;;;;6290946;28;20074;-82
2023/12/25 01:55:27;;;;;;;0.10;0.10;;;;;;;;;;6292393;28;20489;-82
2023/12/25 01:58:27;;;;;;;0.10;0.10;;;;;;;;;;6273807;28;20013;-82
2023/12/25 02:01:27;;;;;;;0.10;0.10;;;;;;;;;;6291529;28;20019;-82
2023/12/25 02:04:28;;;;;;;0.20;0.20;;;;;;;;;;6273727;28;20036;-77
2023/12/25 02:07:29;;;;;;;0.20;0.20;;;;;;;;;;6291197;28;20065;-79
2023/12/25 02:10:30;;;;;;;0.20;0.20;;;;;;;;;;6287391;28;20498;-79
2023/12/25 02:13:30;;;;;;;0.13;0.13;;;;;;;;;;6291803;28;20027;-82
2023/12/25 02:16:30;;;;;;;0.10;0.10;;;;;;;;;;6283540;28;20021;-81
2023/12/25 02:19:38;;;;;;;0.10;0.10;;;;;;;;;;6291430;28;20025;-82
2023/12/25 02:22:39;;;;;;;0.10;0.10;;;;;;;;;;6290638;28;20070;-81
2023/12/25 02:26:06;;;;;;;0.10;0.10;;;;;;;;;;6291111;28;20021;-82
2023/12/25 02:29:06;;;;;;;0.15;0.15;;;;;;;;;;6284936;28;20082;-82
2023/12/25 02:32:06;;;;;;;0.20;0.20;;;;;;;;;;6291135;28;20054;-81
2023/12/25 02:35:07;;;;;;;0.20;0.20;;;;;;;;;;6291066;28;20484;-81
2023/12/25 02:38:07;;;;;;;0.20;0.20;;;;;;;;;;6287901;28;20560;-81
2023/12/25 02:41:07;;;;;;;0.10;0.10;;;;;;;;;;6267459;28;20061;-81
2023/12/25 02:44:07;;;;;;;0.20;0.20;;;;;;;;;;6290220;28;20026;-82
2023/12/25 02:47:07;;;;;;;0.20;0.20;;;;;;;;;;6278125;28;20069;-81
2023/12/25 02:50:08;;;;;;;0.10;0.10;;;;;;;;;;6291575;28;20478;-81
2023/12/25 02:53:09;;;;;;;0.10;0.10;;;;;;;;;;6271836;28;20048;-81
2023/12/25 02:56:09;;;;;;;0.10;0.10;;;;;;;;;;6290875;28;20017;-82
2023/12/25 02:59:09;;;;;;;0.20;0.20;;;;;;;;;;6276772;28;20024;-82
2023/12/25 03:02:09;;;;;;;0.20;0.20;;;;;;;;;;6274339;28;20020;-82
2023/12/25 03:05:09;;;;;;;0.20;0.20;;;;;;;;;;6295052;28;20037;-82
2023/12/25 03:08:10;;;;;;;0.20;0.20;;;;;;;;;;6295562;28;20108;-81
2023/12/25 03:11:10;;;;;;;0.20;0.20;;;;;;;;;;6295055;28;20035;-83
2023/12/25 03:14:10;;;;;;;0.20;0.20;;;;;;;;;;6277005;28;20029;-82
2023/12/25 03:17:10;;;;;;;0.20;0.20;;;;;;;;;;6293268;28;20013;-82
2023/12/25 03:20:11;;;;;;;0.20;0.20;;;;;;;;;;6289805;28;20024;-84
2023/12/25 03:23:11;;;;;;;0.20;0.20;;;;;;;;;;6276751;28;20519;-83
2023/12/25 03:26:11;;;;;;;0.20;0.20;;;;;;;;;;6294901;28;20024;-83
2023/12/25 03:29:11;;;;;;;0.20;0.20;;;;;;;;;;6294471;28;20020;-83
2023/12/25 03:32:13;;;;;;;0.17;0.17;;;;;;;;;;6294212;28;20479;-81
2023/12/25 03:35:13;;;;;;;0.10;0.10;;;;;;;;;;6295075;28;20021;-84
2023/12/25 03:38:13;;;;;;;0.10;0.10;;;;;;;;;;6276079;28;20013;-82
2023/12/25 03:41:14;;;;;;;0.10;0.10;;;;;;;;;;6293894;28;20421;-84
2023/12/25 03:44:14;;;;;;;0.10;0.10;;;;;;;;;;6276006;28;20047;-83
2023/12/25 03:47:14;;;;;;;0.20;0.20;;;;;;;;;;6291672;28;20075;-83
2023/12/25 03:50:14;;;;;;;0.10;0.10;;;;;;;;;;6293854;28;20028;-83
2023/12/25 03:53:14;;;;;;;0.10;0.10;;;;;;;;;;6294226;28;20020;-84
2023/12/25 03:56:17;;;;;;;0.10;0.10;;;;;;;;;;6293729;28;20740;-84
2023/12/25 03:59:19;;;;;;;0.10;0.10;;;;;;;;;;6275956;28;20015;-85
2023/12/25 04:02:20;;;;;;;0.10;0.10;;;;;;;;;;6294177;28;20565;-83
2023/12/25 04:05:20;;;;;;;0.10;0.10;;;;;;;;;;6293821;28;20040;-84
2023/12/25 04:08:20;;;;;;;0.10;0.10;;;;;;;;;;6293474;28;20032;-84
2023/12/25 04:11:21;;;;;;;0.10;0.10;;;;;;;;;;6294138;28;20347;-84
2023/12/25 04:14:21;;;;;;;0.10;0.10;;;;;;;;;;6292966;28;20027;-82
2023/12/25 04:17:21;;;;;;;0.10;0.10;;;;;;;;;;6275270;28;20440;-84
2023/12/25 04:20:21;;;;;;;0.13;0.13;;;;;;;;;;6293408;28;20016;-83
2023/12/25 04:23:21;;;;;;;0.20;0.20;;;;;;;;;;6291736;28;20062;-84
2023/12/25 04:26:22;;;;;;;0.20;0.20;;;;;;;;;;6293460;28;20383;-81
2023/12/25 04:29:22;;;;;;;0.20;0.20;;;;;;;;;;6293169;28;20047;-82
2023/12/25 04:32:22;;;;;;;0.20;0.20;;;;;;;;;;6275112;28;20020;-82
2023/12/25 04:35:23;;;;;;;0.20;0.20;;;;;;;;;;6289664;28;20033;-83
2023/12/25 04:38:23;;;;;;;0.10;0.10;;;;;;;;;;6280992;28;20091;-81
2023/12/25 04:41:23;;;;;;;0.20;0.20;;;;;;;;;;6282095;28;20012;-83
2023/12/25 04:44:23;;;;;;;0.20;0.20;;;;;;;;;;6293193;28;20356;-83
2023/12/25 04:47:24;;;;;;;0.15;0.15;;;;;;;;;;6292985;28;20013;-82
2023/12/25 04:50:24;;;;;;;0.10;0.10;;;;;;;;;;6273858;28;20021;-82
2023/12/25 04:53:24;;;;;;;0.20;0.20;;;;;;;;;;6293584;28;20035;-79
2023/12/25 04:56:24;;;;;;;0.20;0.20;;;;;;;;;;6289942;28;20028;-80
2023/12/25 04:59:25;;;;;;;0.20;0.20;;;;;;;;;;6291373;28;20389;-80
2023/12/25 05:02:25;;;;;;;0.20;0.20;;;;;;;;;;6274401;28;20481;-80
2023/12/25 05:05:28;;;;;;;0.10;0.10;;;;;;;;;;6292848;28;20676;-80
2023/12/25 05:08:28;;;;;;;0.10;0.10;;;;;;;;;;6292229;28;20035;-80
2023/12/25 05:11:28;;;;;;;0.20;0.20;;;;;;;;;;6292394;28;20383;-80
2023/12/25 05:14:28;;;;;;;0.13;0.13;;;;;;;;;;6292107;28;20032;-80
2023/12/25 05:17:28;;;;;;;0.20;0.20;;;;;;;;;;6287252;28;20017;-81
2023/12/25 05:20:29;;;;;;;0.10;0.10;;;;;;;;;;6280282;28;20107;-80
2023/12/25 05:23:29;;;;;;;0.10;0.10;;;;;;;;;;6291971;28;20012;-80
2023/12/25 05:26:29;;;;;;;0.20;0.20;;;;;;;;;;6292968;28;20015;-81
2023/12/25 05:29:29;;;;;;;0.10;0.10;;;;;;;;;;6263475;28;20425;-81
2023/12/25 05:32:30;;;;;;;0.10;0.10;;;;;;;;;;6292341;28;20044;-81
2023/12/25 05:35:30;;;;;;;0.10;0.10;;;;;;;;;;6292299;28;20020;-80
2023/12/25 05:38:31;;;;;;;0.20;0.20;;;;;;;;;;6286717;28;21193;-81
2023/12/25 05:41:31;;;;;;;0.20;0.20;;;;;;;;;;6291977;28;20062;-80
2023/12/25 05:44:31;;;;;;;0.20;0.20;;;;;;;;;;6280872;28;20314;-81
2023/12/25 05:47:31;;;;;;;0.10;0.10;;;;;;;;;;6290581;28;20021;-80
2023/12/25 05:50:31;;;;;;;0.10;0.10;;;;;;;;;;6292425;28;20066;-81
2023/12/25 05:53:32;;;;;;;0.10;0.10;;;;;;;;;;6292547;28;20538;-80
2023/12/25 05:56:32;;;;;;;0.10;0.10;;;;;;;;;;6291808;28;20502;-81
2023/12/25 05:59:32;;;;;;;0.10;0.10;;;;;;;;;;6273231;28;20027;-80
2023/12/25 06:02:32;;;;;;;0.10;0.10;;;;;;;;;;6291691;28;20539;-80
2023/12/25 06:05:32;;;;;;;0.20;0.20;;;;;;;;;;6291657;28;20461;-80
2023/12/25 06:08:33;;;;;;;0.10;0.10;;;;;;;;;;6273597;28;20029;-80
2023/12/25 06:11:35;;;;;;;0.10;0.10;;;;;;;;;;6291125;28;20021;-80
2023/12/25 06:14:36;;;;;;;0.20;0.20;;;;;;;;;;6273328;28;20021;-78
2023/12/25 06:17:36;;;;;;;0.17;0.17;;;;;;;;;;6273464;28;20021;-79
2023/12/25 06:20:36;;;;;;;0.10;0.10;;;;;;;;;;6270992;28;20050;-80
2023/12/25 06:23:36;;;;;;;0.10;0.10;;;;;;;;;;6291026;28;20093;-80
2023/12/25 06:26:37;;;;;;;0.20;0.20;;;;;;;;;;6291594;28;20059;-80
2023/12/25 06:29:38;;;;;;;0.10;0.10;;;;;;;;;;6291232;28;20430;-79
2023/12/25 06:32:40;;;;;;;0.20;0.20;;;;;;;;;;6290879;28;20021;-80
2023/12/25 06:35:41;;;;;;;0.20;0.20;;;;;;;;;;6290747;28;20485;-80
2023/12/25 06:38:41;;;;;;;0.20;0.20;;;;;;;;;;6294651;28;20096;-79
2023/12/25 06:41:41;;;;;;;0.20;0.20;;;;;;;;;;6296089;28;20021;-80
2023/12/25 06:44:41;;;;;;;0.10;0.10;;;;;;;;;;6277732;28;20031;-79
2023/12/25 06:47:41;;;;;;;0.10;0.10;;;;;;;;;;6289205;28;20024;-79
2023/12/25 06:50:42;;;;;;;0.17;0.17;;;;;;;;;;6277855;28;20451;-79
2023/12/25 06:53:42;;;;;;;0.10;0.10;;;;;;;;;;6275436;28;20398;-79
2023/12/25 06:56:42;;;;;;;0.20;0.20;;;;;;;;;;6287430;28;20047;-80
2023/12/25 06:59:43;;;;;;;0.10;0.10;;;;;;;;;;6291400;28;20419;-80
2023/12/25 07:02:43;;;;;;;0.20;0.20;;;;;;;;;;6267521;28;20025;-81
2023/12/25 07:05:43;;;;;;;0.10;0.10;;;;;;;;;;6285452;28;20040;-80
2023/12/25 07:08:45;;;;;;;0.20;0.20;;;;;;;;;;6294586;28;20099;-80
2023/12/25 07:11:45;;;;;;;0.20;0.20;;;;;;;;;;6290808;28;20503;-80
2023/12/25 07:14:46;;;;;;;0.20;0.20;;;;;;;;;;6282463;28;20019;-86
2023/12/25 07:17:46;;;;;;;0.10;0.10;;;;;;;;;;6287222;28;20021;-86
2023/12/25 07:20:46;;;;;;;0.10;0.10;;;;;;;;;;6292794;28;20013;-85
2023/12/25 07:23:47;;;;;;;0.20;0.20;;;;;;;;;;6272995;28;20474;-85
2023/12/25 07:26:47;;;;;;;0.20;0.20;;;;;;;;;;6285047;28;20027;-84
2023/12/25 07:29:47;;;;;;;0.20;0.20;;;;;;;;;;6287092;28;20372;-83
2023/12/25 07:32:47;;;;;;;0.20;0.20;;;;;;;;;;6282639;28;20041;-84
2023/12/25 07:35:47;;;;;;;0.13;0.13;;;;;;;;;;6294565;28;20016;-84
2023/12/25 07:38:47;;;;;;;0.20;0.20;;;;;;;;;;6274072;28;20187;-85
2023/12/25 07:41:48;;;;;;;0.13;0.13;;;;;;;;;;6273229;28;20009;-86
2023/12/25 07:44:48;;;;;;;0.10;0.10;;;;;;;;;;6289107;28;20107;-86
2023/12/25 07:47:48;;;;;;;0.20;0.20;;;;;;;;;;6274779;28;20023;-85
2023/12/25 07:50:49;;;;;;;0.10;0.10;;;;;;;;;;6293276;28;20039;-85
2023/12/25 07:53:49;;;;;;;0.10;0.10;;;;;;;;;;6281387;28;20036;-85
2023/12/25 07:56:50;;;;;;;0.15;0.15;;;;;;;;;;6294721;28;20062;-85
2023/12/25 07:59:50;;;;;;;0.10;0.10;;;;;;;;;;6290839;28;20522;-86
2023/12/25 08:02:50;;;;;;;0.20;0.20;;;;;;;;;;6280328;28;20025;-85
2023/12/25 08:05:50;;;;;;;0.10;0.10;;;;;;;;;;6291827;28;20447;-86
2023/12/25 08:08:51;;;;;;;0.10;0.10;;;;;;;;;;6290028;28;20141;-86
2023/12/25 08:11:51;;;;;;;0.10;0.10;;;;;;;;;;6291885;28;20024;-86
2023/12/25 08:14:52;;;;;;;0.20;0.20;;;;;;;;;;6292213;28;20112;-84
2023/12/25 08:17:52;;;;;;;0.10;0.10;;;;;;;;;;6284073;28;20028;-85
2023/12/25 08:20:52;;;;;;;0.10;0.10;;;;;;;;;;6289486;28;20017;-85
2023/12/25 08:23:52;;;;;;;0.10;0.10;;;;;;;;;;6292623;28;20581;-81
2023/12/25 08:26:52;;;;;;;0.10;0.10;;;;;;;;;;6292681;28;20415;-80
2023/12/25 08:29:52;;;;;;;0.10;0.10;;;;;;;;;;6293219;28;20020;-81
2023/12/25 08:32:53;;;;;;;0.20;0.20;;;;;;;;;;6282922;28;20526;-81
2023/12/25 08:35:53;;;;;;;0.10;0.10;;;;;;;;;;6282809;28;20033;-81
2023/12/25 08:38:55;;;;;;;0.10;0.10;;;;;;;;;;6286082;28;20032;-81
2023/12/25 08:42:00;;;;;;;0.20;0.20;;;;;;;;;;6292236;28;20108;-81
2023/12/25 08:45:01;;;;;;;0.13;0.13;;;;;;;;;;6281952;28;20100;-85
2023/12/25 08:48:01;;;;;;;0.10;0.10;;;;;;;;;;6291229;28;20021;-85
2023/12/25 08:51:01;;;;;;;0.10;0.10;;;;;;;;;;6287293;28;20024;-85
2023/12/25 08:54:02;;;;;;;0.10;0.10;;;;;;;;;;6278911;28;20075;-78
2023/12/25 08:57:04;;;;;;;0.10;0.10;;;;;;;;;;6279664;28;20016;-78
2023/12/25 09:00:05;;;;;;;0.20;0.20;;;;;;;;;;6261855;28;20033;-79
2023/12/25 09:03:06;;;;;;;;;;;;;;;;;;6271149;28;20065;-84
2023/12/25 09:06:06;;;;;;;0.10;0.10;;;;;;;;;;6279955;28;19916;-82
2023/12/25 09:09:07;;;;;;;0.10;0.10;;;;;;;;;;6263524;28;20017;-85
2023/12/25 09:12:07;;;;;;;0.10;0.10;;;;;;;;;;6289745;28;20066;-84
2023/12/25 09:15:07;;;;;;;0.10;0.10;;;;;;;;;;6288882;28;20055;-84
2023/12/25 09:18:07;;;;;;;0.10;0.10;;;;;;;;;;6286966;28;20020;-85
2023/12/25 09:21:08;;;;;;;0.10;0.10;;;;;;;;;;6279971;28;20068;-82
2023/12/25 09:24:08;;;;;;;0.10;0.10;;;;;;;;;;6271665;28;20535;-84
2023/12/25 09:27:08;;;;;;;0.20;0.20;;;;;;;;;;6290338;28;20166;-83
2023/12/25 09:30:09;;;;;;;0.10;0.10;;;;;;;;;;6288520;28;20537;-83
2023/12/25 09:33:09;;;;;;;0.17;0.17;;;;;;;;;;6276358;28;20502;-83
2023/12/25 09:36:09;;;;;;;0.10;0.10;;;;;;;;;;6287060;28;20108;-83
2023/12/25 09:39:09;;;;;;;0.10;0.10;;;;;;;;;;6271957;28;20391;-82
2023/12/25 09:42:10;;;;;;;0.10;0.10;;;;;;;;;;6288754;28;20051;-82
2023/12/25 09:45:11;;;;;;;0.10;0.10;;;;;;;;;;6290787;28;20036;-78
2023/12/25 09:48:11;;;;;;;0.10;0.10;;;;;;;;;;6271646;28;20020;-78
2023/12/25 09:51:13;;;;;;;0.20;0.20;;;;;;;;;;6289580;28;20348;-78
2023/12/25 09:54:13;;;;;;;0.15;0.15;;;;;;;;;;6289497;28;20024;-81
2023/12/25 09:57:14;;;;;;;0.20;0.20;;;;;;;;;;6289118;28;20056;-83
2023/12/25 10:00:15;;;;;;;0.20;0.20;;;;;;;;;;6272752;28;20021;-83
2023/12/25 10:03:15;;;;;;;0.10;0.10;;;;;;;;;;6291398;28;20032;-84
2023/12/25 10:06:16;;;;;;;0.20;0.20;;;;;;;;;;6253465;28;20041;-83
2023/12/25 10:09:16;;;;;;;0.20;0.20;;;;;;;;;;6240893;28;20040;-82
2023/12/25 10:12:16;;;;;;;0.10;0.10;;;;;;;;;;6235814;28;20447;-82
2023/12/25 10:15:17;;;;;;;0.17;0.17;;;;;;;;;;6235814;28;20097;-83
2023/12/25 10:18:18;;;;;;;0.17;0.17;;;;;;;;;;6236711;28;20364;-80
2023/12/25 10:21:18;;;;;;;0.20;0.20;;;;;;;;;;6242022;28;20014;-83
2023/12/25 10:24:24;;;;;;;0.10;0.10;;;;;;;;;;6242151;28;20025;-84
2023/12/25 10:27:24;;;;;;;0.10;0.10;;;;;;;;;;6234254;28;20032;-82
2023/12/25 10:30:27;;;;;;;0.10;0.10;;;;;;;;;;6238861;28;20132;-84
2023/12/25 10:33:28;;;;;;;0.20;0.20;;;;;;;;;;6241136;28;20052;-84
2023/12/25 10:36:29;;;;;;;0.20;0.20;;;;;;;;;;6237992;28;20022;-85
2023/12/25 10:39:33;;;;;;;0.10;0.10;;;;;;;;;;6241068;28;20033;-84
2023/12/25 10:42:33;;;;;;;0.10;0.10;;;;;;;;;;6241881;28;20461;-84
2023/12/25 10:45:33;;;;;;;0.10;0.10;;;;;;;;;;6221396;28;20029;-81
2023/12/25 10:48:33;;;;;;;0.10;0.10;;;;;;;;;;6238447;28;20488;-85
2023/12/25 10:51:34;;;;;;;0.10;0.10;;;;;;;;;;6244493;28;20104;-84
2023/12/25 10:54:36;;;;;;;0.10;0.10;;;;;;;;;;6232352;28;20037;-81
2023/12/25 10:57:37;;;;;;;0.20;0.20;;;;;;;;;;6245442;28;20013;-82
2023/12/25 11:00:39;;;;;;;0.20;0.20;;;;;;;;;;6251592;28;20499;-82
2023/12/25 11:03:39;;;;;;;0.10;0.10;;;;;;;;;;6246376;28;20434;-82
2023/12/25 11:06:40;;;;;;;0.10;0.10;;;;;;;;;;6202170;28;1420443;-81
2023/12/25 11:09:40;;;;;;;0.10;0.10;;;;;;;;;;6241800;28;20032;-82
2023/12/25 11:12:40;;;;;;;0.10;0.10;;;;;;;;;;6238488;28;20025;-83
2023/12/25 11:15:41;;;;;;;0.10;0.10;;;;;;;;;;6251640;28;20828;-81
2023/12/25 11:18:41;;;;;;;0.10;0.10;;;;;;;;;;6250616;28;20021;-81
2023/12/25 11:21:41;;;;;;;0.10;0.10;;;;;;;;;;6244914;28;20037;-82
2023/12/25 11:24:42;;;;;;;0.10;0.10;;;;;;;;;;6251260;28;20472;-83
2023/12/25 11:27:43;;;;;;;0.10;0.10;;;;;;;;;;6237488;28;20048;-84
2023/12/25 11:30:44;;;;;;;0.10;0.10;;;;;;;;;;6240795;28;20284;-85
2023/12/25 11:33:47;;;;;;;0.10;0.10;;;;;;;;;;6240317;28;20026;-86
2023/12/25 11:36:48;;;;;;;0.10;0.10;;;;;;;;;;6232972;28;20029;-85
2023/12/25 11:39:53;;;;;;;0.10;0.10;;;;;;;;;;6239146;28;20018;-85
2023/12/25 11:42:53;;;;;;;0.10;0.10;;;;;;;;;;6239679;28;20032;-86
2023/12/25 11:45:54;;;;;;;0.10;0.10;;;;;;;;;;6242396;28;20103;-85
2023/12/25 11:48:58;;;;;;;0.10;0.10;;;;;;;;;;6239267;28;20017;-85
2023/12/25 11:51:58;;;;;;;0.10;0.10;;;;;;;;;;6243843;28;20105;-85
2023/12/25 11:54:59;;;;;;;0.10;0.10;;;;;;;;;;6242993;28;20033;-84
2023/12/25 11:57:59;;;;;;;0.10;0.10;;;;;;;;;;6240297;28;20049;-83
2023/12/25 12:00:59;;;;;;;0.10;0.10;;;;;;;;;;6233443;28;20018;-82
2023/12/25 12:03:59;;;;;;;0.10;0.10;;;;;;;;;;6231351;28;20437;-79
2023/12/25 12:07:00;;;;;;;0.10;0.10;;;;;;;;;;6278151;28;20040;-81
2023/12/25 12:10:00;;;;;;;0.10;0.10;;;;;;;;;;6275190;28;20062;-81
2023/12/25 12:13:00;;;;;;;0.10;0.10;;;;;;;;;;6292194;28;20113;-81
2023/12/25 12:16:00;;;;;;;0.10;0.10;;;;;;;;;;6275191;28;20017;-81
2023/12/25 12:19:02;;;;;;;0.10;0.10;;;;;;;;;;6293621;28;20016;-80
2023/12/25 12:22:02;;;;;;;0.10;0.10;;;;;;;;;;6263750;28;20026;-79
2023/12/25 12:25:23;;;;;;;0.10;0.10;;;;;;;;;;6267773;28;20024;-78
2023/12/25 12:28:23;;;;;;;0.15;0.15;;;;;;;;;;6269311;28;20039;-77
2023/12/25 12:31:23;;;;;;;0.10;0.10;;;;;;;;;;6269826;28;20033;-77
2023/12/25 12:34:24;;;;;;;0.10;0.10;;;;;;;;;;6274435;28;20028;-79
2023/12/25 12:37:24;;;;;;;0.20;0.20;;;;;;;;;;6293344;28;20135;-78
2023/12/25 12:40:25;;;;;;;0.10;0.10;;;;;;;;;;6282208;28;20498;-79
2023/12/25 12:43:25;;;;;;;0.20;0.20;;;;;;;;;;6284907;28;20085;-79
2023/12/25 12:46:25;;;;;;;0.10;0.10;;;;;;;;;;6286663;28;20482;-78
2023/12/25 12:49:26;;;;;;;0.20;0.20;;;;;;;;;;6288497;28;20074;-79
2023/12/25 12:52:26;;;;;;;0.10;0.10;;;;;;;;;;6292434;28;20021;-80
2023/12/25 12:55:26;;;;;;;0.10;0.10;;;;;;;;;;6291378;28;20471;-79
2023/12/25 12:58:26;;;;;;;0.10;0.10;;;;;;;;;;6290757;28;20051;-78
2023/12/25 13:01:29;;;;;;;0.20;0.20;;;;;;;;;;6288042;28;20043;-81
2023/12/25 13:04:30;;;;;;;0.20;0.20;;;;;;;;;;6285549;28;20035;-81
2023/12/25 13:07:30;;;;;;;0.17;0.17;;;;;;;;;;6271185;28;20495;-81
2023/12/25 13:10:30;;;;;;;0.20;0.20;;;;;;;;;;6290744;28;20055;-81
2023/12/25 13:13:31;;;;;;;0.10;0.10;;;;;;;;;;6290720;28;20101;-81
2023/12/25 13:16:31;;;;;;;0.10;0.10;;;;;;;;;;6290473;28;20024;-81
2023/12/25 13:19:31;;;;;;;0.10;0.10;;;;;;;;;;6289585;28;20017;-81
2023/12/25 13:22:32;;;;;;;0.10;0.10;;;;;;;;;;6290876;28;20464;-82
2023/12/25 13:25:32;;;;;;;0.20;0.20;;;;;;;;;;6283877;28;20051;-82
2023/12/25 13:28:33;;;;;;;0.20;0.20;;;;;;;;;;6280538;28;20020;-80
2023/12/25 13:31:33;;;;;;;0.20;0.20;;;;;;;;;;6284733;28;20021;-81
2023/12/25 13:34:33;;;;;;;0.20;0.20;;;;;;;;;;6263199;28;20059;-84
2023/12/25 13:37:33;;;;;;;0.10;0.10;;;;;;;;;;6289985;28;20051;-84
2023/12/25 13:40:34;;;;;;;0.10;0.10;;;;;;;;;;6288201;28;20039;-83
2023/12/25 13:43:34;;;;;;;0.10;0.10;;;;;;;;;;6284547;28;20028;-83
2023/12/25 13:46:34;;;;;;;0.10;0.10;;;;;;;;;;6281851;28;20111;-84
2023/12/25 13:49:34;;;;;;;0.10;0.10;;;;;;;;;;6286805;28;20024;-83
2023/12/25 13:52:35;;;;;;;0.10;0.10;;;;;;;;;;6288969;28;20044;-82
2023/12/25 13:55:35;;;;;;;0.20;0.20;;;;;;;;;;6284324;28;20510;-82
2023/12/25 13:58:39;;;;;;;0.10;0.10;;;;;;;;;;6290008;28;20024;-82
2023/12/25 14:01:39;;;;;;;0.20;0.20;;;;;;;;;;6279105;28;20077;-82
2023/12/25 14:04:39;;;;;;;0.10;0.10;;;;;;;;;;6287923;28;20405;-79
2023/12/25 14:07:39;;;;;;;0.10;0.10;;;;;;;;;;6290441;28;20044;-77
2023/12/25 14:10:40;;;;;;;0.20;0.20;;;;;;;;;;6271274;28;20048;-78
2023/12/25 14:13:40;;;;;;;0.10;0.10;;;;;;;;;;6289293;28;20101;-79
2023/12/25 14:16:41;;;;;;;0.20;0.20;;;;;;;;;;6283216;28;20025;-79
2023/12/25 14:19:42;;;;;;;0.10;0.10;;;;;;;;;;6286548;28;20596;-79
2023/12/25 14:22:43;;;;;;;0.10;0.10;;;;;;;;;;6258766;28;20078;-79
2023/12/25 14:25:43;;;;;;;0.10;0.10;;;;;;;;;;6290779;28;20032;-80
2023/12/25 14:28:43;;;;;;;0.20;0.20;;;;;;;;;;6291281;28;20078;-80
2023/12/25 14:31:43;;;;;;;0.20;0.20;;;;;;;;;;6291630;28;20117;-79
2023/12/25 14:34:43;;;;;;;0.17;0.17;;;;;;;;;;6291467;28;20020;-79
2023/12/25 14:37:44;;;;;;;0.20;0.20;;;;;;;;;;6291737;28;20024;-79
2023/12/25 14:40:44;;;;;;;0.10;0.10;;;;;;;;;;6291545;28;20029;-79
2023/12/25 14:43:46;;;;;;;0.20;0.20;;;;;;;;;;6290588;28;20099;-80
2023/12/25 14:46:47;;;;;;;0.10;0.10;;;;;;;;;;6291612;28;20539;-80
2023/12/25 14:49:47;;;;;;;0.20;0.20;;;;;;;;;;6272916;28;20028;-78
2023/12/25 14:52:47;;;;;;;0.17;0.17;;;;;;;;;;6285911;28;20098;-81
2023/12/25 14:55:48;;;;;;;0.10;0.10;;;;;;;;;;6291077;28;20029;-82
2023/12/25 14:58:48;;;;;;;0.20;0.20;;;;;;;;;;6294027;28;20024;-81
2023/12/25 15:01:49;;;;;;;0.20;0.20;;;;;;;;;;6295873;28;20025;-81
2023/12/25 15:04:49;;;;;;;0.10;0.10;;;;;;;;;;6295676;28;20039;-81
2023/12/25 15:07:49;;;;;;;0.13;0.13;;;;;;;;;;6295234;28;20041;-82
2023/12/25 15:10:49;;;;;;;0.20;0.20;;;;;;;;;;6295343;28;20104;-82
2023/12/25 15:13:50;;;;;;;0.20;0.20;;;;;;;;;;6277689;28;20024;-82
2023/12/25 15:16:51;;;;;;;0.10;0.10;;;;;;;;;;6295263;28;20036;-83
2023/12/25 15:19:51;;;;;;;0.20;0.20;;;;;;;;;;6276454;28;20433;-83
2023/12/25 15:22:51;;;;;;;0.10;0.10;;;;;;;;;;6294980;28;20028;-83
2023/12/25 15:25:52;;;;;;;0.20;0.20;;;;;;;;;;6287860;28;20025;-83
2023/12/25 15:28:53;;;;;;;0.20;0.20;;;;;;;;;;6288612;28;20024;-82
2023/12/25 15:31:53;;;;;;;0.10;0.10;;;;;;;;;;6259340;28;20056;-82
2023/12/25 15:34:53;;;;;;;0.10;0.10;;;;;;;;;;6282456;28;20028;-83
2023/12/25 15:37:53;;;;;;;0.10;0.10;;;;;;;;;;6294593;28;20513;-83
2023/12/25 15:40:54;;;;;;;0.10;0.10;;;;;;;;;;6276726;28;20032;-83
2023/12/25 15:43:54;;;;;;;0.20;0.20;;;;;;;;;;6294423;28;20017;-81
2023/12/25 15:47:00;;;;;;;0.20;0.20;;;;;;;;;;6282351;28;20482;-81
2023/12/25 15:50:01;;;;;;;0.10;0.10;;;;;;;;;;6290801;28;20183;-78
2023/12/25 15:53:05;;;;;;;0.20;0.20;;;;;;;;;;6294236;28;20386;-79
2023/12/25 15:56:05;;;;;;;0.20;0.20;;;;;;;;;;6294306;28;20023;-80
2023/12/25 15:59:06;;;;;;;0.20;0.20;;;;;;;;;;6276219;28;20395;-81
2023/12/25 16:02:07;;;;;;;0.20;0.20;;;;;;;;;;6294056;28;20421;-81
2023/12/25 16:05:09;;;;;;;0.10;0.10;;;;;;;;;;6294143;28;20070;-79
2023/12/25 16:08:09;;;;;;;0.10;0.10;;;;;;;;;;6294327;28;20418;-80
2023/12/25 16:11:11;;;;;;;0.13;0.13;;;;;;;;;;6274757;28;20028;-79
2023/12/25 16:14:11;;;;;;;;;;;;;;;;;;6294548;28;20488;-80
2023/12/25 16:17:12;;;;;;;0.10;0.10;;;;;;;;;;6294197;28;20370;-81
2023/12/25 16:20:13;;;;;;;0.13;0.13;;;;;;;;;;6293832;28;20021;-80
2023/12/25 16:23:13;;;;;;;0.17;0.17;;;;;;;;;;6275829;28;20020;-83
2023/12/25 16:26:13;;;;;;;0.10;0.10;;;;;;;;;;6275921;28;20013;-83
2023/12/25 16:29:13;;;;;;;0.20;0.20;;;;;;;;;;6272058;28;20126;-83
2023/12/25 16:32:13;;;;;;;0.20;0.20;;;;;;;;;;6290000;28;20012;-84
2023/12/25 16:35:14;;;;;;;0.10;0.10;;;;;;;;;;6290243;28;20104;-83
2023/12/25 16:38:14;;;;;;;0.20;0.20;;;;;;;;;;6293536;28;20016;-82
2023/12/25 16:41:14;;;;;;;0.20;0.20;;;;;;;;;;6275470;28;20043;-83
2023/12/25 16:44:14;;;;;;;0.10;0.10;;;;;;;;;;6275021;28;20531;-84
2023/12/25 16:47:15;;;;;;;0.20;0.20;;;;;;;;;;6293236;28;20390;-84
2023/12/25 16:50:16;;;;;;;0.17;0.17;;;;;;;;;;6293416;28;20471;-84
2023/12/25 16:53:16;;;;;;;0.10;0.10;;;;;;;;;;6292620;28;20110;-84
2023/12/25 16:56:16;;;;;;;0.20;0.20;;;;;;;;;;6292384;28;20519;-85
2023/12/25 16:59:16;;;;;;;0.10;0.10;;;;;;;;;;6289413;28;20372;-85
2023/12/25 17:02:17;;;;;;;0.10;0.10;;;;;;;;;;6277486;28;20059;-84
2023/12/25 17:05:17;;;;;;;0.20;0.20;;;;;;;;;;6292608;28;20430;-84
2023/12/25 17:08:17;;;;;;;0.10;0.10;;;;;;;;;;6274693;28;20107;-84
2023/12/25 17:11:17;;;;;;;0.20;0.20;;;;;;;;;;6273375;28;20024;-83
2023/12/25 17:14:18;;;;;;;0.10;0.10;;;;;;;;;;6292143;28;20035;-83
2023/12/25 17:17:18;;;;;;;0.10;0.10;;;;;;;;;;6274740;28;20021;-81
2023/12/25 17:20:18;;;;;;;0.20;0.20;;;;;;;;;;6291855;28;20498;-81
2023/12/25 17:23:18;;;;;;;0.20;0.20;;;;;;;;;;6292100;28;20497;-82
2023/12/25 17:26:19;;;;;;;0.10;0.10;;;;;;;;;;6292533;28;20017;-81
2023/12/25 17:29:19;;;;;;;0.20;0.20;;;;;;;;;;6292345;28;20352;-81
2023/12/25 17:32:19;;;;;;;0.20;0.20;;;;;;;;;;6291994;28;20009;-81
2023/12/25 17:35:19;;;;;;;0.10;0.10;;;;;;;;;;6278036;28;20043;-80
2023/12/25 17:38:20;;;;;;;0.20;0.20;;;;;;;;;;6274106;28;20059;-79
2023/12/25 17:41:20;;;;;;;0.20;0.20;;;;;;;;;;6283167;28;20023;-80
2023/12/25 17:44:20;;;;;;;0.20;0.20;;;;;;;;;;6287246;28;20042;-80
2023/12/25 17:47:20;;;;;;;0.10;0.10;;;;;;;;;;6274109;28;20071;-81
2023/12/25 17:50:21;;;;;;;0.20;0.20;;;;;;;;;;6291017;28;20034;-81
2023/12/25 17:53:21;;;;;;;0.20;0.20;;;;;;;;;;6295336;28;20024;-80
2023/12/25 17:56:21;;;;;;;0.20;0.20;;;;;;;;;;6286567;28;20020;-80
2023/12/25 17:59:21;;;;;;;0.20;0.20;;;;;;;;;;6285351;28;20071;-80
2023/12/25 18:02:22;;;;;;;0.10;0.10;;;;;;;;;;6274428;28;20017;-80